Time;durP1;ratioP1;P1;durP2;ratioP2;P2;SDS_P1;SDS_P2;PMS_P1;PMS_P2;Temp;Humidity;BMP_temperature;BMP_pressure;BME280_temperature;BME280_humidity;BME280_pressure;Samples;Min_cycle;Max_cycle;Signal;HPM_P1;HPM_P2
2023/05/26 00:01:07;;;;;;;28.10;22.88;;;;;;;15.18;91.81;151101.47;5027453;28;20073;-71
2023/05/26 00:03:34;;;;;;;29.05;23.25;;;;;;;15.17;91.71;151097.63;5023821;28;20227;-72
2023/05/26 00:06:00;;;;;;;25.95;21.98;;;;;;;15.14;91.78;151091.19;5030705;28;20109;-72
2023/05/26 00:08:26;;;;;;;26.48;22.50;;;;;;;15.10;91.70;151080.88;5040873;28;20037;-74
2023/05/26 00:10:52;;;;;;;28.73;22.23;;;;;;;15.16;91.74;151096.34;5029735;28;20021;-71
2023/05/26 00:13:17;;;;;;;25.75;20.88;;;;;;;15.18;91.50;151100.22;5024598;28;20068;-71
2023/05/26 00:15:43;;;;;;;28.00;22.17;;;;;;;15.19;91.62;151102.75;5023577;28;20013;-71
2023/05/26 00:18:09;;;;;;;28.52;23.38;;;;;;;15.17;91.72;151098.91;5032020;28;20221;-71
2023/05/26 00:20:35;;;;;;;29.48;22.90;;;;;;;15.15;91.43;151092.50;5039614;28;20033;-70
2023/05/26 00:23:01;;;;;;;26.65;22.70;;;;;;;15.12;91.49;151084.72;5032027;28;20059;-70
2023/05/26 00:25:26;;;;;;;25.52;22.13;;;;;;;15.13;91.45;151087.31;5043196;28;20132;-70
2023/05/26 00:27:52;;;;;;;25.83;21.80;;;;;;;15.10;91.25;151079.63;5029206;28;20026;-70
2023/05/26 00:30:17;;;;;;;29.52;21.98;;;;;;;15.16;91.40;151095.03;5032989;28;20029;-73
2023/05/26 00:32:44;;;;;;;26.65;21.85;;;;;;;15.15;90.85;151093.75;5038390;28;20088;-74
2023/05/26 00:35:09;;;;;;;26.02;21.80;;;;;;;15.09;90.96;151077.03;5023584;28;20076;-72
2023/05/26 00:37:35;;;;;;;29.33;22.45;;;;;;;15.01;91.06;151057.75;5043414;28;20028;-73
2023/05/26 00:40:01;;;;;;;26.20;20.75;;;;;;;14.99;90.99;151053.88;5034198;28;20041;-72
2023/05/26 00:42:26;;;;;;;26.30;21.45;;;;;;;15.01;91.14;151057.75;5032640;28;20044;-73
2023/05/26 00:44:52;;;;;;;25.48;21.25;;;;;;;15.00;90.96;151055.16;5011441;28;20306;-73
2023/05/26 00:47:18;;;;;;;25.95;21.17;;;;;;;15.00;90.87;151055.16;5024118;28;20187;-71
2023/05/26 00:49:44;;;;;;;24.17;21.23;;;;;;;15.01;90.83;151059.00;5005774;28;20033;-71
2023/05/26 00:52:11;;;;;;;24.83;20.50;;;;;;;15.01;90.82;151057.75;5039380;28;20021;-72
2023/05/26 00:54:39;;;;;;;28.85;23.20;;;;;;;14.69;90.82;150977.94;5042950;28;20311;-75
2023/05/26 00:57:07;;;;;;;30.35;22.92;;;;;;;14.92;90.78;151035.88;5021900;28;20137;-76
2023/05/26 00:59:33;;;;;;;27.33;22.98;;;;;;;14.97;91.14;151048.72;4995308;28;20018;-73
2023/05/26 01:01:59;;;;;;;29.67;22.63;;;;;;;14.98;90.97;151051.31;5042850;28;20304;-74
2023/05/26 01:04:25;;;;;;;28.80;23.15;;;;;;;14.94;90.91;151039.72;5032313;28;20053;-75
2023/05/26 01:06:52;;;;;;;26.20;21.50;;;;;;;14.87;91.17;151023.00;5039980;28;20321;-76
2023/05/26 01:09:18;;;;;;;24.58;21.85;;;;;;;14.87;91.07;151023.00;5027480;28;20041;-72
2023/05/26 01:12:02;;;;;;;25.50;21.98;;;;;;;14.85;90.71;151017.88;5030464;28;20191;-72
2023/05/26 01:14:56;;;;;;;27.70;22.85;;;;;;;14.72;90.96;150985.72;5040413;28;20042;-73
2023/05/26 01:17:39;;;;;;;26.23;21.90;;;;;;;14.72;91.26;150985.72;5033266;28;20057;-75
2023/05/26 01:20:19;;;;;;;27.55;21.92;;;;;;;14.81;90.73;151007.56;5027963;28;20034;-75
2023/05/26 01:22:50;;;;;;;25.13;20.33;;;;;;;14.74;91.22;150989.56;5045294;28;20025;-76
2023/05/26 01:25:37;;;;;;;22.77;20.37;;;;;;;14.72;91.33;150984.38;5025155;28;20034;-75
2023/05/26 01:28:06;;;;;;;27.42;21.63;;;;;;;14.65;90.79;150967.66;5043829;28;20036;-73
2023/05/26 01:30:35;;;;;;;24.80;21.55;;;;;;;14.72;90.96;150984.38;5029159;28;20018;-72
2023/05/26 01:33:00;;;;;;;27.55;21.83;;;;;;;14.74;91.32;150990.84;5032471;28;20021;-70
2023/05/26 01:35:26;;;;;;;25.75;21.70;;;;;;;14.77;91.15;150997.28;5022885;28;20191;-71
2023/05/26 01:37:52;;;;;;;25.02;20.98;;;;;;;14.76;91.07;150994.69;5022761;28;20034;-71
2023/05/26 01:40:18;;;;;;;30.27;21.83;;;;;;;14.72;91.13;150984.38;5041009;28;20088;-72
2023/05/26 01:42:53;;;;;;;24.75;21.27;;;;;;;14.61;91.33;150958.63;5045975;28;20032;-73
2023/05/26 01:45:23;;;;;;;27.55;21.23;;;;;;;14.67;91.46;150972.81;5030295;28;20034;-72
2023/05/26 01:47:52;;;;;;;26.92;20.75;;;;;;;14.71;91.02;150983.13;5030858;28;20037;-72
2023/05/26 01:50:21;;;;;;;22.73;20.38;;;;;;;14.57;91.42;150947.06;5038483;28;20340;-71
2023/05/26 01:52:51;;;;;;;23.92;21.00;;;;;;;14.66;91.52;150971.56;5060004;28;20037;-70
2023/05/26 01:55:21;;;;;;;24.25;20.40;;;;;;;14.54;91.73;150940.63;5004952;28;20271;-71
2023/05/26 01:57:48;;;;;;;23.75;20.92;;;;;;;14.66;91.61;150971.56;5038323;28;20036;-72
2023/05/26 02:00:14;;;;;;;24.17;19.92;;;;;;;14.70;91.51;150979.28;5041446;28;20037;-70
2023/05/26 02:02:40;;;;;;;25.55;20.60;;;;;;;14.77;91.42;150997.28;5055620;28;20072;-71
2023/05/26 02:05:06;;;;;;;22.25;19.85;;;;;;;14.75;91.39;150993.41;5040024;28;20210;-73
2023/05/26 02:07:34;;;;;;;21.77;19.13;;;;;;;14.72;91.66;150984.38;5022384;28;20050;-72
2023/05/26 02:10:00;;;;;;;22.60;20.10;;;;;;;14.71;91.93;150981.81;5022463;28;20037;-72
2023/05/26 02:12:26;;;;;;;22.05;19.63;;;;;;;14.72;91.84;150985.72;5036450;28;20025;-73
2023/05/26 02:14:51;;;;;;;23.27;18.85;;;;;;;14.80;91.92;151005.00;5019614;28;20048;-73
2023/05/26 02:17:18;;;;;;;24.73;19.45;;;;;;;14.80;91.91;151005.00;5029548;28;20033;-72
2023/05/26 02:20:05;;;;;;;23.30;19.13;;;;;;;14.88;91.91;151025.59;5043114;28;20064;-73
2023/05/26 02:22:31;;;;;;;25.15;20.35;;;;;;;14.94;91.79;151039.72;5052346;28;20044;-73
2023/05/26 02:24:57;;;;;;;26.30;19.98;;;;;;;14.97;91.73;151047.44;5045530;28;20033;-74
2023/05/26 02:27:22;;;;;;;21.30;18.50;;;;;;;14.98;92.03;151051.31;5033387;28;20022;-74
2023/05/26 02:29:48;;;;;;;22.17;18.25;;;;;;;14.99;91.58;151053.88;5033589;28;20258;-74
2023/05/26 02:32:13;;;;;;;21.85;18.65;;;;;;;14.97;91.81;151048.72;5028309;28;20038;-72
2023/05/26 02:34:39;;;;;;;19.08;17.13;;;;;;;15.05;91.62;151068.03;5035193;28;20072;-72
2023/05/26 02:37:05;;;;;;;21.98;17.92;;;;;;;15.10;91.33;151079.63;5027152;28;20046;-73
2023/05/26 02:39:31;;;;;;;20.85;18.65;;;;;;;15.08;91.71;151074.44;5002180;28;20036;-71
2023/05/26 02:41:56;;;;;;;27.10;20.40;;;;;;;15.14;91.81;151089.91;5025185;28;20038;-74
2023/05/26 02:44:22;;;;;;;20.15;17.95;;;;;;;15.20;92.20;151105.34;5029253;28;20033;-71
2023/05/26 02:46:47;;;;;;;20.90;18.17;;;;;;;15.27;91.75;151123.34;5044903;28;20231;-71
2023/05/26 02:49:13;;;;;;;23.00;20.25;;;;;;;15.34;91.61;151141.38;5038802;28;20318;-73
2023/05/26 02:51:38;;;;;;;21.98;18.48;;;;;;;15.34;91.89;151140.09;5013107;28;20045;-74
2023/05/26 02:54:04;;;;;;;21.10;18.23;;;;;;;15.44;92.02;151165.81;5034614;28;20029;-73
2023/05/26 02:56:30;;;;;;;19.77;16.48;;;;;;;15.47;91.60;151173.53;5040151;28;20051;-73
2023/05/26 02:58:55;;;;;;;31.67;25.30;;;;;;;15.57;92.01;151196.75;5025021;28;20045;-73
2023/05/26 03:01:24;;;;;;;24.73;19.75;;;;;;;15.62;92.06;151209.56;5027221;28;20025;-73
2023/05/26 03:03:50;;;;;;;28.35;21.20;;;;;;;15.61;91.92;151207.03;5044755;28;20053;-68
2023/05/26 03:06:16;;;;;;;28.10;21.63;;;;;;;15.75;91.66;151241.75;5023434;28;20046;-70
2023/05/26 03:08:42;;;;;;;25.30;20.35;;;;;;;15.84;92.40;151266.28;5024859;28;20103;-69
2023/05/26 03:11:07;;;;;;;27.83;22.77;;;;;;;15.90;93.24;151280.44;5024688;28;20041;-69
2023/05/26 03:13:33;;;;;;;27.85;22.20;;;;;;;15.97;93.01;151298.47;5024851;28;20211;-72
2023/05/26 03:15:58;;;;;;;26.88;21.45;;;;;;;16.11;92.74;151333.25;5041457;28;20314;-71
2023/05/26 03:18:24;;;;;;;28.38;22.92;;;;;;;16.18;91.74;151350.00;5032189;28;20033;-70
2023/05/26 03:20:49;;;;;;;28.23;21.40;;;;;;;16.32;91.50;151384.78;5032090;28;20184;-71
2023/05/26 03:23:18;;;;;;;28.42;23.55;;;;;;;16.39;91.73;151402.81;5041032;28;20064;-70
2023/05/26 03:25:44;;;;;;;32.17;26.95;;;;;;;16.39;91.69;151404.09;5024062;28;20080;-69
2023/05/26 03:28:09;;;;;;;32.55;24.88;;;;;;;16.54;90.34;151440.13;5042467;28;20033;-68
2023/05/26 03:30:35;;;;;;;30.02;23.92;;;;;;;16.61;90.04;151458.16;5030636;28;20021;-69
2023/05/26 03:33:01;;;;;;;33.30;24.73;;;;;;;16.68;90.15;151476.19;5033150;28;20234;-70
2023/05/26 03:35:27;;;;;;;27.98;23.27;;;;;;;16.68;90.13;151476.19;5039827;28;20034;-70
2023/05/26 03:37:52;;;;;;;27.42;23.23;;;;;;;16.81;89.68;151507.13;5006552;28;20060;-69
2023/05/26 03:40:18;;;;;;;29.45;22.30;;;;;;;17.03;89.39;151563.88;5034459;28;20038;-70
2023/05/26 03:42:44;;;;;;;25.40;22.13;;;;;;;17.11;88.71;151583.19;5038897;28;20098;-69
2023/05/26 03:45:12;;;;;;;24.90;21.20;;;;;;;17.13;88.23;151587.06;5034057;28;20026;-70
2023/05/26 03:47:38;;;;;;;29.15;22.45;;;;;;;17.22;88.39;151610.28;5024322;28;20030;-69
2023/05/26 03:50:04;;;;;;;28.27;21.40;;;;;;;17.36;87.54;151646.34;5024833;28;20072;-69
2023/05/26 03:52:29;;;;;;;26.98;20.98;;;;;;;17.52;86.72;151685.03;5043726;28;20025;-69
2023/05/26 03:54:55;;;;;;;29.23;21.80;;;;;;;17.62;86.51;151709.53;5027505;28;20025;-69
2023/05/26 03:57:20;;;;;;;24.27;21.58;;;;;;;17.73;86.26;151739.16;5035382;28;20021;-70
2023/05/26 03:59:46;;;;;;;30.60;24.30;;;;;;;17.80;86.40;151754.63;5022544;28;20026;-69
2023/05/26 04:02:12;;;;;;;27.25;23.33;;;;;;;17.82;85.81;151759.81;5034161;28;20198;-70
2023/05/26 04:04:38;;;;;;;28.67;21.95;;;;;;;17.90;85.97;151781.75;5043770;28;20044;-69
2023/05/26 04:07:04;;;;;;;27.55;22.25;;;;;;;17.97;85.30;151798.53;5026206;28;20053;-69
2023/05/26 04:09:31;;;;;;;27.88;22.63;;;;;;;18.05;85.47;151817.88;5036283;28;20029;-70
2023/05/26 04:11:56;;;;;;;30.05;23.52;;;;;;;18.06;85.48;151821.72;5035755;28;20033;-70
2023/05/26 04:14:22;;;;;;;27.90;22.20;;;;;;;18.03;83.61;151812.72;5026999;28;20025;-68
2023/05/26 04:16:48;;;;;;;27.63;22.67;;;;;;;18.08;83.42;151825.59;5043583;28;20029;-70
2023/05/26 04:19:14;;;;;;;29.30;23.70;;;;;;;18.05;82.92;151817.88;5025089;28;20037;-69
2023/05/26 04:21:39;;;;;;;25.73;22.50;;;;;;;18.16;83.14;151844.97;5016157;28;20033;-68
2023/05/26 04:24:05;;;;;;;25.88;21.80;;;;;;;18.31;83.13;151883.63;5032220;28;20061;-71
2023/05/26 04:26:34;;;;;;;26.38;20.95;;;;;;;18.40;83.82;151906.84;5010527;28;20167;-71
2023/05/26 04:29:02;;;;;;;30.98;22.48;;;;;;;18.33;82.91;151887.47;5035916;28;20033;-70
2023/05/26 04:31:31;;;;;;;25.48;22.08;;;;;;;18.49;83.57;151927.50;5053252;28;20025;-71
2023/05/26 04:33:58;;;;;;;25.92;21.67;;;;;;;18.57;83.99;151949.41;5051964;28;20302;-70
2023/05/26 04:36:25;;;;;;;29.63;21.25;;;;;;;18.62;83.19;151961.03;5051501;28;20028;-71
2023/05/26 04:38:51;;;;;;;20.92;18.65;;;;;;;18.71;81.47;151984.25;5051870;28;20085;-71
2023/05/26 04:41:18;;;;;;;19.73;17.02;;;;;;;18.73;80.71;151989.41;5005554;28;20030;-68
2023/05/26 04:43:45;;;;;;;21.67;17.98;;;;;;;18.89;79.99;152028.16;5052660;28;20063;-71
2023/05/26 04:46:11;;;;;;;24.63;18.95;;;;;;;18.95;79.95;152044.94;5032576;28;20025;-76
2023/05/26 04:48:38;;;;;;;19.58;17.33;;;;;;;18.99;77.46;152053.97;5037936;28;20025;-74
2023/05/26 04:51:05;;;;;;;17.60;15.43;;;;;;;19.11;76.44;152084.94;5034175;28;20034;-73
2023/05/26 04:53:31;;;;;;;19.02;15.27;;;;;;;19.24;76.52;152115.88;5023110;28;20097;-71
2023/05/26 04:56:00;;;;;;;17.50;14.90;;;;;;;19.29;76.36;152130.06;5023369;28;20022;-71
2023/05/26 04:58:26;;;;;;;18.58;15.75;;;;;;;19.45;76.31;152170.13;5042540;28;20097;-73
2023/05/26 05:00:53;;;;;;;14.65;13.07;;;;;;;19.50;75.01;152181.72;5021480;28;20045;-72
2023/05/26 05:03:20;;;;;;;16.15;14.25;;;;;;;19.75;75.61;152243.69;5062443;28;20024;-72
2023/05/26 05:05:46;;;;;;;16.75;13.25;;;;;;;19.93;74.18;152288.94;5056312;28;20089;-73
2023/05/26 05:08:12;;;;;;;16.92;13.32;;;;;;;19.97;72.61;152299.25;5041007;28;20067;-73
2023/05/26 05:10:38;;;;;;;15.18;13.57;;;;;;;20.05;73.36;152318.59;5022683;28;20038;-72
2023/05/26 05:13:03;;;;;;;15.20;12.43;;;;;;;20.20;72.90;152356.09;5033218;28;20261;-75
2023/05/26 05:15:29;;;;;;;14.25;11.27;;;;;;;20.41;71.53;152410.31;5050805;28;20025;-72
2023/05/26 05:17:54;;;;;;;13.65;12.27;;;;;;;20.46;70.99;152423.19;5018028;28;20032;-74
2023/05/26 05:20:20;;;;;;;12.57;11.27;;;;;;;20.73;72.41;152490.44;5007061;28;20046;-74
2023/05/26 05:22:46;;;;;;;14.18;12.55;;;;;;;20.96;71.52;152547.28;5008484;28;20021;-75
2023/05/26 05:25:12;;;;;;;12.85;11.55;;;;;;;21.13;71.58;152591.19;5008533;28;20053;-72
2023/05/26 05:27:37;;;;;;;12.63;10.93;;;;;;;21.14;71.19;152593.78;5042535;28;20014;-71
2023/05/26 05:30:03;;;;;;;12.45;11.23;;;;;;;21.14;68.11;152593.78;5034002;28;20310;-73
2023/05/26 05:32:30;;;;;;;10.85;9.52;;;;;;;21.40;68.96;152658.41;5027478;28;20034;-73
2023/05/26 05:34:56;;;;;;;11.98;9.77;;;;;;;21.48;68.42;152677.81;5038555;28;20025;-74
2023/05/26 05:37:22;;;;;;;11.05;9.95;;;;;;;21.46;68.98;152673.94;5041304;28;20479;-73
2023/05/26 05:39:47;;;;;;;11.20;10.02;;;;;;;21.40;68.61;152658.41;5015627;28;20017;-70
2023/05/26 05:42:13;;;;;;;15.32;10.18;;;;;;;21.38;67.59;152654.53;5033108;28;20100;-72
2023/05/26 05:44:39;;;;;;;14.32;9.55;;;;;;;21.44;67.97;152668.75;5006622;28;20030;-71
2023/05/26 05:47:04;;;;;;;13.90;8.52;;;;;;;21.52;68.23;152688.16;5022137;28;20110;-75
2023/05/26 05:49:31;;;;;;;11.63;8.27;;;;;;;21.54;67.77;152694.63;5008854;28;20030;-72
2023/05/26 05:51:56;;;;;;;9.75;8.48;;;;;;;21.64;66.62;152719.22;5008665;28;20038;-73
2023/05/26 05:54:22;;;;;;;16.70;9.13;;;;;;;21.59;65.92;152706.31;5025119;28;20057;-74
2023/05/26 05:56:47;;;;;;;9.18;7.60;;;;;;;21.49;64.80;152681.69;5026049;28;20081;-71
2023/05/26 05:59:13;;;;;;;7.80;7.00;;;;;;;21.54;65.80;152694.63;5008854;28;20172;-72
2023/05/26 06:01:38;;;;;;;9.38;8.32;;;;;;;21.64;66.81;152717.94;5014674;28;20024;-72
2023/05/26 06:04:04;;;;;;;12.80;8.50;;;;;;;21.55;66.90;152697.25;5028340;28;20096;-72
2023/05/26 06:06:31;;;;;;;9.63;7.35;;;;;;;21.58;65.23;152702.38;5024737;28;20054;-71
2023/05/26 06:08:57;;;;;;;12.48;8.23;;;;;;;21.63;65.25;152715.34;5015280;28;20254;-71
2023/05/26 06:11:22;;;;;;;9.07;7.18;;;;;;;21.68;63.77;152728.28;5025778;28;20025;-71
2023/05/26 06:13:48;;;;;;;9.20;6.50;;;;;;;21.70;62.85;152733.44;5025842;28;20214;-71
2023/05/26 06:16:14;;;;;;;12.63;10.38;;;;;;;21.74;62.37;152743.78;5041543;28;20033;-73
2023/05/26 06:18:40;;;;;;;9.77;6.90;;;;;;;21.82;63.39;152764.47;5033090;28;20072;-72
2023/05/26 06:21:05;;;;;;;9.32;6.13;;;;;;;21.97;62.65;152800.66;5033535;28;20064;-73
2023/05/26 06:23:31;;;;;;;13.80;7.00;;;;;;;21.94;62.39;152792.91;5042626;28;20037;-71
2023/05/26 06:25:56;;;;;;;9.38;6.72;;;;;;;21.91;61.09;152786.44;5048837;28;20029;-71
2023/05/26 06:28:22;;;;;;;6.97;6.38;;;;;;;22.03;60.37;152816.16;5059878;28;20229;-72
2023/05/26 06:30:48;;;;;;;12.60;7.43;;;;;;;21.97;58.88;152801.94;5027839;28;20097;-69
2023/05/26 06:33:14;;;;;;;51.33;19.38;;;;;;;21.96;59.52;152799.38;5039113;28;20319;-69
2023/05/26 06:35:39;;;;;;;7.68;6.80;;;;;;;21.88;59.80;152779.97;5025701;28;20038;-70
2023/05/26 06:38:05;;;;;;;242.35;74.97;;;;;;;21.99;61.27;152805.81;5025206;28;20210;-71
2023/05/26 06:40:31;;;;;;;92.30;30.00;;;;;;;22.09;60.88;152830.38;5034009;28;20057;-71
2023/05/26 06:42:56;;;;;;;11.55;7.35;;;;;;;22.16;60.01;152849.81;5040128;28;20033;-71
2023/05/26 06:45:22;;;;;;;8.75;6.38;;;;;;;22.27;59.18;152875.66;5034835;28;20025;-71
2023/05/26 06:47:48;;;;;;;8.20;5.95;;;;;;;22.34;59.85;152893.81;5025281;28;20049;-71
2023/05/26 06:50:13;;;;;;;8.43;6.22;;;;;;;22.45;59.10;152921.00;5028111;28;20053;-69
2023/05/26 06:52:39;;;;;;;7.43;6.82;;;;;;;22.46;57.84;152923.53;5038557;28;20032;-72
2023/05/26 06:55:05;;;;;;;6.13;5.55;;;;;;;22.49;56.62;152932.63;5049641;28;20041;-71
2023/05/26 06:57:30;;;;;;;8.77;5.80;;;;;;;22.54;55.92;152945.53;5033931;28;20030;-72
2023/05/26 06:59:56;;;;;;;9.30;6.18;;;;;;;22.58;56.87;152955.88;5025044;28;20030;-72
2023/05/26 07:02:22;;;;;;;7.13;5.72;;;;;;;22.51;57.22;152937.78;5026708;28;20064;-72
2023/05/26 07:04:47;;;;;;;6.72;6.03;;;;;;;22.72;55.76;152989.53;5041341;28;20033;-71
2023/05/26 07:07:13;;;;;;;8.13;6.00;;;;;;;22.54;53.09;152945.53;5039216;28;20112;-71
2023/05/26 07:09:39;;;;;;;12.10;6.47;;;;;;;22.71;56.27;152986.94;5022072;28;20025;-71
2023/05/26 07:12:06;;;;;;;8.45;5.88;;;;;;;22.85;57.68;153023.13;5043322;28;20037;-68
2023/05/26 07:14:32;;;;;;;8.98;5.95;;;;;;;22.94;57.37;153045.13;5017087;28;20030;-69
2023/05/26 07:16:57;;;;;;;17.95;7.57;;;;;;;22.93;52.79;153043.84;5025045;28;20337;-68
2023/05/26 07:19:23;;;;;;;8.57;5.72;;;;;;;22.93;52.05;153042.53;5032202;28;20262;-69
2023/05/26 07:21:49;;;;;;;10.23;6.78;;;;;;;22.99;53.66;153058.09;5042943;28;20311;-69
2023/05/26 07:24:15;;;;;;;8.40;6.43;;;;;;;23.04;51.77;153069.72;5052731;28;20049;-69
2023/05/26 07:26:40;;;;;;;18.98;7.68;;;;;;;23.09;52.66;153083.94;5052887;28;20033;-69
2023/05/26 07:29:06;;;;;;;8.35;6.05;;;;;;;23.06;51.07;153074.91;5019134;28;20029;-70
2023/05/26 07:31:31;;;;;;;7.35;5.45;;;;;;;23.18;49.90;153106.00;5018018;28;20033;-70
2023/05/26 07:33:57;;;;;;;6.63;5.10;;;;;;;23.19;50.05;153108.59;5036226;28;20048;-69
2023/05/26 07:36:23;;;;;;;8.23;5.28;;;;;;;23.33;49.83;153143.53;5040128;28;20025;-69
2023/05/26 07:38:48;;;;;;;9.13;5.47;;;;;;;23.44;51.37;153170.69;5052739;28;20029;-69
2023/05/26 07:41:14;;;;;;;7.72;5.15;;;;;;;23.50;50.11;153186.25;5028804;28;20085;-69
2023/05/26 07:43:39;;;;;;;7.85;4.97;;;;;;;23.40;48.73;153161.66;5051054;28;20041;-70
2023/05/26 07:46:05;;;;;;;8.18;4.80;;;;;;;23.38;47.89;153155.16;5058105;28;20025;-69
2023/05/26 07:48:31;;;;;;;7.30;4.88;;;;;;;23.44;47.32;153172.00;5022355;28;20214;-69
2023/05/26 07:50:57;;;;;;;5.40;4.90;;;;;;;23.47;48.17;153178.44;5046179;28;20033;-71
2023/05/26 07:53:22;;;;;;;7.18;5.60;;;;;;;23.41;46.83;153164.19;5035191;28;20021;-70
2023/05/26 07:55:48;;;;;;;8.52;5.50;;;;;;;23.35;46.66;153148.69;5048794;28;20032;-70
2023/05/26 07:58:13;;;;;;;7.47;6.13;;;;;;;23.70;49.05;153235.38;5037832;28;20061;-70
2023/05/26 08:00:39;;;;;;;7.75;5.28;;;;;;;23.73;48.34;153243.19;5032330;28;20132;-69
2023/05/26 08:03:05;;;;;;;8.05;5.00;;;;;;;23.81;47.64;153263.88;5031927;28;20041;-68
2023/05/26 08:05:31;;;;;;;5.10;4.47;;;;;;;23.81;47.42;153262.59;5037645;28;20084;-69
2023/05/26 08:07:57;;;;;;;6.35;5.00;;;;;;;23.71;45.94;153239.28;5043114;28;20222;-69
2023/05/26 08:10:23;;;;;;;7.53;5.60;;;;;;;23.84;45.83;153270.34;5026108;28;20037;-71
2023/05/26 08:12:51;;;;;;;8.18;5.07;;;;;;;23.91;43.94;153288.53;5038423;28;20310;-70
2023/05/26 08:15:17;;;;;;;6.78;5.00;;;;;;;24.09;45.34;153333.84;5034779;28;20025;-69
2023/05/26 08:17:43;;;;;;;6.60;5.03;;;;;;;24.12;46.27;153342.88;5039289;28;20072;-68
2023/05/26 08:20:10;;;;;;;8.23;5.63;;;;;;;24.16;46.13;153350.66;5024098;28;20033;-68
2023/05/26 08:22:37;;;;;;;7.20;5.00;;;;;;;24.27;47.06;153380.47;5042515;28;20036;-68
2023/05/26 08:25:03;;;;;;;5.95;4.63;;;;;;;24.20;44.29;153361.00;5021943;28;20029;-69
2023/05/26 08:27:29;;;;;;;14.77;5.57;;;;;;;24.26;42.30;153376.56;5022379;28;20041;-68
2023/05/26 08:29:55;;;;;;;7.05;4.82;;;;;;;24.24;44.13;153371.38;5036721;28;20013;-70
2023/05/26 08:32:20;;;;;;;6.95;5.50;;;;;;;24.34;43.31;153395.97;5051001;28;20028;-70
2023/05/26 08:34:46;;;;;;;8.48;5.88;;;;;;;24.40;43.50;153411.50;5052472;28;20025;-69
2023/05/26 08:37:13;;;;;;;7.03;5.20;;;;;;;24.36;41.13;153401.19;5043253;28;20041;-68
2023/05/26 08:39:40;;;;;;;6.25;5.00;;;;;;;24.37;41.10;153405.06;5049329;28;20029;-69
2023/05/26 08:42:06;;;;;;;6.05;4.88;;;;;;;24.51;42.05;153438.72;5045987;28;20025;-68
2023/05/26 08:44:34;;;;;;;7.03;5.85;;;;;;;24.54;40.93;153447.81;5032500;28;20124;-69
2023/05/26 08:47:02;;;;;;;6.60;4.90;;;;;;;24.70;41.59;153488.00;5033667;28;20021;-68
2023/05/26 08:49:34;;;;;;;7.53;4.97;;;;;;;24.88;41.53;153533.28;5037112;28;20031;-68
2023/05/26 08:52:06;;;;;;;;;;;;;;;24.81;40.89;153516.50;5043109;28;20044;-69
2023/05/26 08:54:31;;;;;;;;;;;;;;;24.97;43.48;153555.34;5035563;28;19916;-69
2023/05/26 08:56:58;;;;;;;6.65;5.03;;;;;;;25.02;42.41;153567.00;5028843;28;19955;-68
2023/05/26 08:59:25;;;;;;;6.90;5.07;;;;;;;25.07;42.93;153579.91;5050000;28;20103;-68
2023/05/26 09:01:50;;;;;;;5.22;4.65;;;;;;;25.14;39.91;153599.38;5050653;28;20096;-70
2023/05/26 09:04:16;;;;;;;6.35;4.80;;;;;;;25.19;40.36;153611.03;5053112;28;20037;-71
2023/05/26 09:06:43;;;;;;;13.07;5.18;;;;;;;25.17;40.67;153605.88;5039569;28;20239;-71
2023/05/26 09:09:09;;;;;;;7.28;4.72;;;;;;;25.29;41.98;153636.94;5033903;28;20083;-69
2023/05/26 09:11:42;;;;;;;6.88;5.20;;;;;;;25.16;40.25;153604.53;5039324;28;20029;-69
2023/05/26 09:14:11;;;;;;;11.18;5.13;;;;;;;25.27;41.06;153631.78;5051212;28;20204;-70
2023/05/26 09:16:38;;;;;;;8.07;5.10;;;;;;;25.07;38.96;153581.25;5025269;28;20042;-70
2023/05/26 09:19:04;;;;;;;5.68;5.07;;;;;;;25.01;41.41;153564.41;5022678;28;20040;-71
2023/05/26 09:21:30;;;;;;;26.85;6.20;;;;;;;24.89;43.37;153534.63;5024204;28;20038;-70
2023/05/26 09:23:58;;;;;;;7.50;5.50;;;;;;;24.92;42.47;153542.38;5024697;28;20025;-69
2023/05/26 09:26:32;;;;;;;7.53;5.18;;;;;;;25.05;42.17;153574.75;5049750;28;20025;-69
2023/05/26 09:28:59;;;;;;;8.25;5.97;;;;;;;24.88;41.72;153533.28;5038804;28;20301;-70
2023/05/26 09:31:25;;;;;;;6.47;5.88;;;;;;;24.87;41.19;153529.41;5042557;28;20029;-69
2023/05/26 09:33:52;;;;;;;14.18;6.22;;;;;;;24.97;42.15;153556.63;5049828;28;20068;-70
2023/05/26 09:36:22;;;;;;;8.40;5.82;;;;;;;25.21;42.72;153616.25;5043552;28;20033;-69
2023/05/26 09:38:50;;;;;;;8.23;6.15;;;;;;;25.35;42.37;153649.97;5055942;28;20037;-68
2023/05/26 09:41:20;;;;;;;7.43;5.70;;;;;;;25.25;40.60;153626.56;5054598;28;20088;-68
2023/05/26 09:43:49;;;;;;;10.15;6.00;;;;;;;25.41;43.05;153665.50;5036991;28;20095;-71
2023/05/26 09:46:22;;;;;;;10.35;7.35;;;;;;;25.57;43.86;153706.97;5025296;28;20099;-70
2023/05/26 09:48:51;;;;;;;9.40;6.28;;;;;;;25.48;41.88;153683.63;5040391;28;20029;-70
2023/05/26 09:51:20;;;;;;;8.25;5.47;;;;;;;25.49;42.65;153686.22;5003290;28;20318;-69
2023/05/26 09:53:47;;;;;;;6.70;6.10;;;;;;;25.52;44.21;153692.72;5035467;28;20037;-70
2023/05/26 09:56:17;;;;;;;11.57;6.25;;;;;;;25.37;42.22;153656.44;5026032;28;20316;-71
2023/05/26 09:58:46;;;;;;;10.13;6.13;;;;;;;25.40;41.70;153662.94;5045451;28;20172;-69
2023/05/26 10:01:12;;;;;;;5.60;5.13;;;;;;;25.57;41.38;153706.97;5033068;28;20053;-70
2023/05/26 10:03:38;;;;;;;6.72;6.03;;;;;;;25.55;41.17;153701.75;5037183;28;20038;-66
2023/05/26 10:06:04;;;;;;;6.28;5.50;;;;;;;25.26;40.26;153629.16;5031286;28;20793;-68
2023/05/26 10:08:32;;;;;;;8.52;6.05;;;;;;;25.17;39.80;153605.88;5005682;28;20042;-70
2023/05/26 10:10:58;;;;;;;6.10;5.50;;;;;;;25.03;39.70;153570.88;5006180;28;20030;-69
2023/05/26 10:13:24;;;;;;;8.60;6.18;;;;;;;24.94;40.61;153548.88;5022518;28;20025;-69
2023/05/26 10:15:50;;;;;;;6.35;5.72;;;;;;;25.04;40.53;153573.50;5025545;28;20025;-68
2023/05/26 10:18:16;;;;;;;7.55;5.90;;;;;;;25.04;41.27;153573.50;5036953;28;20235;-68
2023/05/26 10:20:48;;;;;;;5.57;5.07;;;;;;;25.16;41.50;153603.28;5023040;28;20069;-68
2023/05/26 10:23:22;;;;;;;8.68;5.43;;;;;;;25.33;43.24;153647.34;5007029;28;20029;-68
2023/05/26 10:26:01;;;;;;;6.70;5.93;;;;;;;25.43;41.98;153670.69;5025180;28;20028;-68
2023/05/26 10:28:45;;;;;;;8.65;6.07;;;;;;;25.59;43.39;153710.88;5008819;28;20026;-69
2023/05/26 10:31:11;;;;;;;9.13;6.03;;;;;;;25.64;43.09;153725.13;5020316;28;20345;-68
2023/05/26 10:33:44;;;;;;;6.32;5.63;;;;;;;25.50;40.93;153688.84;4997618;28;20367;-69
2023/05/26 10:36:16;;;;;;;7.78;5.72;;;;;;;25.41;41.82;153665.50;5011988;28;20048;-72
2023/05/26 10:38:47;;;;;;;7.60;6.80;;;;;;;25.37;41.55;153656.44;5025225;28;20238;-72
2023/05/26 10:41:30;;;;;;;8.48;5.30;;;;;;;24.83;41.68;153520.38;5042157;28;20029;-74
2023/05/26 10:43:57;;;;;;;8.20;5.15;;;;;;;25.09;42.26;153586.41;5005846;28;20022;-70
2023/05/26 10:46:22;;;;;;;11.80;4.75;;;;;;;24.73;41.26;153494.47;5006302;28;20069;-69
2023/05/26 10:48:58;;;;;;;10.98;4.05;;;;;;;24.59;41.42;153459.44;5016569;28;20314;-68
2023/05/26 10:51:32;;;;;;;12.55;4.35;;;;;;;24.37;41.11;153405.06;5021736;28;20033;-67
2023/05/26 10:53:58;;;;;;;13.85;4.32;;;;;;;24.32;44.40;153392.09;5015385;28;20029;-68
2023/05/26 10:56:34;;;;;;;6.95;4.18;;;;;;;24.24;41.49;153371.38;5024857;28;20021;-70
2023/05/26 10:59:03;;;;;;;9.07;4.15;;;;;;;24.14;42.21;153346.75;5005588;28;20029;-67
2023/05/26 11:01:31;;;;;;;10.40;4.60;;;;;;;24.04;42.85;153320.88;5021707;28;20195;-69
2023/05/26 11:04:09;;;;;;;9.63;4.10;;;;;;;23.88;42.46;153280.75;5025659;28;20034;-69
2023/05/26 11:06:52;;;;;;;6.90;4.03;;;;;;;23.78;42.59;153257.38;5024079;28;20046;-67
2023/05/26 11:09:22;;;;;;;6.07;4.28;;;;;;;23.53;42.75;153194.00;5035023;28;20040;-67
2023/05/26 11:11:51;;;;;;;6.57;3.92;;;;;;;23.65;42.25;153222.47;5042116;28;20057;-67
2023/05/26 11:14:23;;;;;;;6.22;3.75;;;;;;;23.60;42.19;153212.13;5037271;28;20037;-69
2023/05/26 11:16:48;;;;;;;;;;;;;;;23.68;42.21;153231.50;5018045;28;20210;-69